createdAt,value
2019-05-21T00:01:48.419Z,97.60
2019-05-21T00:04:27.848Z,97.40
2019-05-21T00:06:49.480Z,97.20
2019-05-21T00:09:19.189Z,97.40
2019-05-21T00:11:48.900Z,97.40
2019-05-21T00:14:18.610Z,97.30
2019-05-21T00:16:48.322Z,97.10
2019-05-21T00:19:18.030Z,96.70
2019-05-21T00:21:47.715Z,97.00
2019-05-21T00:24:17.854Z,96.90
2019-05-21T00:26:47.571Z,97.10
2019-05-21T00:29:53.420Z,97.00
2019-05-21T00:32:59.809Z,96.70
2019-05-21T00:36:06.039Z,96.90
2019-05-21T00:39:12.126Z,96.80
2019-05-21T00:42:04.378Z,96.70
2019-05-21T00:44:40.396Z,96.60
2019-05-21T00:47:10.927Z,96.80
2019-05-21T00:49:40.772Z,97.20
2019-05-21T00:52:10.477Z,97.30
2019-05-21T00:54:40.167Z,97.10
2019-05-21T00:57:09.899Z,97.30
2019-05-21T00:59:39.579Z,97.30
2019-05-21T01:02:09.316Z,96.90
2019-05-21T01:04:39.027Z,97.10
2019-05-21T01:07:08.736Z,96.90
2019-05-21T01:09:38.422Z,96.60
2019-05-21T01:12:08.131Z,96.70
2019-05-21T01:14:37.736Z,96.90
2019-05-21T01:17:07.447Z,96.90
2019-05-21T01:19:39.115Z,96.90
2019-05-21T01:22:08.533Z,96.90
2019-05-21T01:24:39.164Z,96.90
2019-05-21T01:27:08.847Z,96.90
2019-05-21T01:29:38.586Z,96.90
2019-05-21T01:32:09.319Z,97.10
2019-05-21T01:34:39.030Z,97.40
2019-05-21T01:37:08.710Z,97.40
2019-05-21T01:39:40.168Z,97.40
2019-05-21T01:42:10.867Z,97.20
2019-05-21T01:44:40.633Z,97.30
2019-05-21T01:47:10.219Z,97.00
2019-05-21T01:49:39.958Z,97.10
2019-05-21T01:52:11.521Z,96.90
2019-05-21T01:54:41.965Z,96.80
2019-05-21T01:57:11.583Z,97.00
2019-05-21T01:59:41.351Z,96.60
2019-05-21T02:02:11.035Z,96.50
2019-05-21T02:04:40.772Z,96.30
2019-05-21T02:07:10.482Z,96.40
2019-05-21T02:09:58.522Z,96.70
2019-05-21T02:12:28.283Z,96.70
2019-05-21T02:14:58.045Z,95.90
2019-05-21T02:17:27.653Z,96.40
2019-05-21T02:19:57.385Z,96.50
2019-05-21T02:22:27.174Z,97.00
2019-05-21T02:24:56.885Z,96.70
2019-05-21T02:27:27.518Z,96.60
2019-05-21T02:29:57.199Z,96.90
2019-05-21T02:32:26.912Z,96.70
2019-05-21T02:34:56.648Z,96.80
2019-05-21T02:37:27.335Z,97.10
2019-05-21T02:39:57.064Z,97.00
2019-05-21T02:42:27.830Z,97.00
2019-05-21T02:44:57.643Z,96.80
2019-05-21T02:47:27.351Z,97.10
2019-05-21T02:49:57.063Z,97.30
2019-05-21T02:52:26.741Z,97.10
2019-05-21T02:54:56.379Z,97.10
2019-05-21T02:57:29.157Z,96.90
2019-05-21T03:00:00.479Z,97.00
2019-05-21T03:02:37.664Z,97.20
2019-05-21T03:05:07.375Z,97.50
2019-05-21T03:07:37.112Z,97.60
2019-05-21T03:10:06.770Z,97.80
2019-05-21T03:12:36.502Z,97.60
2019-05-21T03:15:06.907Z,97.70
2019-05-21T03:17:36.671Z,97.80
2019-05-21T03:20:25.737Z,97.50
2019-05-21T03:22:57.235Z,97.50
2019-05-21T03:25:26.691Z,97.70
2019-05-21T03:27:56.404Z,97.80
2019-05-21T03:30:26.116Z,97.90
2019-05-21T03:32:56.821Z,98.00
2019-05-21T03:35:26.587Z,98.00
2019-05-21T03:37:56.265Z,97.90
2019-05-21T03:40:25.973Z,97.90
2019-05-21T03:42:55.684Z,97.70
2019-05-21T03:45:25.256Z,97.80
2019-05-21T03:47:55.012Z,98.00
2019-05-21T03:50:24.718Z,97.80
2019-05-21T03:52:55.447Z,98.00
2019-05-21T03:55:25.163Z,97.90
2019-05-21T03:57:54.753Z,97.90
2019-05-21T04:00:24.474Z,97.90
2019-05-21T04:02:54.185Z,97.80
2019-05-21T04:05:24.610Z,97.90
2019-05-21T04:07:54.219Z,98.00
2019-05-21T04:10:23.913Z,98.00
2019-05-21T04:13:06.362Z,98.00
2019-05-21T04:15:50.239Z,98.00
2019-05-21T04:18:21.527Z,98.00
2019-05-21T04:20:51.249Z,97.90
2019-05-21T04:23:20.947Z,97.70
2019-05-21T04:25:50.658Z,98.20
2019-05-21T04:28:21.328Z,98.00
2019-05-21T04:30:51.100Z,97.80
2019-05-21T04:33:22.542Z,97.80
2019-05-21T04:35:52.161Z,97.90
2019-05-21T04:38:21.847Z,97.90
2019-05-21T04:40:51.587Z,98.00
2019-05-21T04:43:21.263Z,97.80
2019-05-21T04:45:50.883Z,98.00
2019-05-21T04:48:20.612Z,98.30
2019-05-21T04:50:50.325Z,98.30
2019-05-21T04:53:20.028Z,98.20
2019-05-21T04:55:49.635Z,98.40
2019-05-21T04:58:19.349Z,98.40
2019-05-21T05:00:48.928Z,98.30
2019-05-21T05:03:19.682Z,98.30
2019-05-21T05:05:49.294Z,98.50
2019-05-21T05:08:18.979Z,98.70
2019-05-21T05:10:49.423Z,98.60
2019-05-21T05:13:19.758Z,98.70
2019-05-21T05:15:50.364Z,98.70
2019-05-21T05:18:20.098Z,98.70
2019-05-21T05:20:49.779Z,98.70
2019-05-21T05:23:19.518Z,98.90
2019-05-21T05:25:49.228Z,98.80
2019-05-21T05:28:18.837Z,98.80
2019-05-21T05:30:49.529Z,98.70
2019-05-21T05:33:19.179Z,98.80
2019-05-21T05:35:49.196Z,98.70
2019-05-21T05:38:18.906Z,98.80
2019-05-21T05:40:49.686Z,98.90
2019-05-21T05:43:20.696Z,98.80
2019-05-21T05:45:50.459Z,98.80
2019-05-21T05:48:20.175Z,98.80
2019-05-21T05:50:53.990Z,98.90
2019-05-21T05:53:23.690Z,98.90
2019-05-21T05:55:54.409Z,99.00
2019-05-21T05:58:24.062Z,98.80
2019-05-21T06:00:53.771Z,98.80
2019-05-21T06:03:24.718Z,98.90
2019-05-21T06:05:54.422Z,98.90
2019-05-21T06:08:24.032Z,98.50
2019-05-21T06:10:53.740Z,98.40
2019-05-21T06:13:23.448Z,98.50
2019-05-21T06:15:53.158Z,98.70
2019-05-21T06:18:22.870Z,98.50
2019-05-21T06:20:52.557Z,98.60
2019-05-21T06:23:22.290Z,98.70
2019-05-21T06:25:53.927Z,98.60
2019-05-21T06:28:23.348Z,98.60
2019-05-21T06:30:54.693Z,98.70
2019-05-21T06:33:24.364Z,98.50
2019-05-21T06:35:53.992Z,98.10
2019-05-21T06:38:24.653Z,98.00
2019-05-21T06:40:54.356Z,98.20
2019-05-21T06:43:24.038Z,98.30
2019-05-21T06:45:53.754Z,98.40
2019-05-21T06:48:23.407Z,98.20
2019-05-21T06:50:53.199Z,98.20
2019-05-21T06:53:22.803Z,98.00
2019-05-21T06:55:52.518Z,98.10
2019-05-21T06:58:22.195Z,98.20
2019-05-21T07:00:51.958Z,98.30
2019-05-21T07:03:22.774Z,98.40
2019-05-21T07:05:58.674Z,98.50
2019-05-21T07:08:34.238Z,98.40
2019-05-21T07:10:55.067Z,98.30
2019-05-21T07:13:24.785Z,98.40
2019-05-21T07:15:54.496Z,98.60
2019-05-21T07:18:24.180Z,98.50
2019-05-21T07:20:53.815Z,98.70
2019-05-21T07:23:23.523Z,98.60
2019-05-21T07:25:54.257Z,98.60
2019-05-21T07:28:25.660Z,98.60
2019-05-21T07:30:55.350Z,98.60
2019-05-21T07:33:24.998Z,98.70
2019-05-21T07:35:54.736Z,98.70
2019-05-21T07:38:25.413Z,98.60
2019-05-21T07:40:55.052Z,98.40
2019-05-21T07:43:24.788Z,98.40
2019-05-21T07:45:54.500Z,98.70
2019-05-21T07:48:24.185Z,98.60
2019-05-21T07:50:54.839Z,98.40
2019-05-21T07:53:24.448Z,98.70
2019-05-21T07:55:54.159Z,98.60
2019-05-21T07:58:23.839Z,98.60
2019-05-21T08:00:53.609Z,98.40
2019-05-21T08:03:23.259Z,98.20
2019-05-21T08:05:53.961Z,98.40
2019-05-21T08:08:23.735Z,98.10
2019-05-21T08:10:53.340Z,98.20
2019-05-21T08:13:23.049Z,98.30
2019-05-21T08:15:52.731Z,98.40
2019-05-21T08:18:22.470Z,98.10
2019-05-21T08:20:52.150Z,98.40
2019-05-21T08:23:21.891Z,98.40
2019-05-21T08:25:51.499Z,98.30
2019-05-21T08:28:21.180Z,98.60
2019-05-21T08:30:50.798Z,98.20
2019-05-21T08:33:20.425Z,98.40
2019-05-21T08:35:50.137Z,98.30
2019-05-21T08:38:20.457Z,98.30
2019-05-21T08:40:50.058Z,98.50
2019-05-21T08:43:22.108Z,98.50
2019-05-21T08:45:51.958Z,98.30
2019-05-21T08:48:21.655Z,98.40
2019-05-21T08:50:52.272Z,98.10
2019-05-21T08:53:21.967Z,98.30
2019-05-21T08:55:51.705Z,98.50
2019-05-21T08:58:21.388Z,98.70
2019-05-21T09:00:51.132Z,98.40
2019-05-21T09:03:20.807Z,98.30
2019-05-21T09:05:50.564Z,98.40
2019-05-21T09:08:20.229Z,98.60
2019-05-21T09:10:49.966Z,98.50
2019-05-21T09:13:19.716Z,98.40
2019-05-21T09:15:49.563Z,98.50
2019-05-21T09:18:19.275Z,98.20
2019-05-21T09:20:48.984Z,98.40
2019-05-21T09:23:18.620Z,98.40
2019-05-21T09:25:49.632Z,98.30
2019-05-21T09:28:19.677Z,97.90
2019-05-21T09:30:49.365Z,98.20
2019-05-21T09:33:19.098Z,98.10
2019-05-21T09:35:49.812Z,98.20
2019-05-21T09:38:19.440Z,98.20
2019-05-21T09:40:49.047Z,97.80
2019-05-21T09:43:18.757Z,97.80
2019-05-21T09:45:50.194Z,97.90
2019-05-21T09:48:19.830Z,97.50
2019-05-21T09:50:49.525Z,97.90
2019-05-21T09:53:19.211Z,98.00
2019-05-21T09:55:48.846Z,98.00
2019-05-21T09:58:20.090Z,97.50
2019-05-21T10:00:57.070Z,96.50
2019-05-21T10:03:28.316Z,96.80
2019-05-21T10:05:57.900Z,97.30
2019-05-21T10:08:28.454Z,96.40
2019-05-21T10:10:58.063Z,96.30
2019-05-21T10:13:27.773Z,96.30
2019-05-21T10:16:02.992Z,96.20
2019-05-21T10:18:33.688Z,96.70
2019-05-21T10:21:03.323Z,96.00
2019-05-21T10:23:33.063Z,96.20
2019-05-21T10:26:02.674Z,96.10
2019-05-21T10:28:32.384Z,96.80
2019-05-21T10:31:02.094Z,96.50
2019-05-21T10:33:31.710Z,96.30
2019-05-21T10:36:01.408Z,96.00
2019-05-21T10:38:31.015Z,95.90
2019-05-21T10:41:00.831Z,95.70
2019-05-21T10:43:30.616Z,95.80
2019-05-21T10:46:00.453Z,96.10
2019-05-21T10:48:31.875Z,94.70
2019-05-21T10:51:01.623Z,95.60
2019-05-21T10:53:31.324Z,95.50
2019-05-21T10:56:01.036Z,94.50
2019-05-21T10:58:30.719Z,94.10
2019-05-21T11:01:01.968Z,95.00
2019-05-21T11:03:45.116Z,94.60
2019-05-21T11:06:18.067Z,94.40
2019-05-21T11:08:48.255Z,93.80
2019-05-21T11:11:21.127Z,94.00
2019-05-21T11:13:49.183Z,93.60
2019-05-21T11:16:18.890Z,93.60
2019-05-21T11:18:49.625Z,94.20
2019-05-21T11:21:19.303Z,93.90
2019-05-21T11:23:49.079Z,94.20
2019-05-21T11:26:18.856Z,93.80
2019-05-21T11:28:48.565Z,93.50
2019-05-21T11:31:18.275Z,93.10
2019-05-21T11:33:47.989Z,93.40
2019-05-21T11:36:17.667Z,93.40
2019-05-21T11:38:47.406Z,93.70
2019-05-21T11:41:17.157Z,93.40
2019-05-21T11:43:46.925Z,94.40
2019-05-21T11:46:16.644Z,93.50
2019-05-21T11:48:46.348Z,93.20
2019-05-21T11:51:17.332Z,94.20
2019-05-21T11:53:47.100Z,93.20
2019-05-21T11:56:17.774Z,94.00
2019-05-21T11:58:47.546Z,93.40
2019-05-21T12:01:17.292Z,94.10
2019-05-21T12:03:46.941Z,94.50
2019-05-21T12:06:16.674Z,94.10
2019-05-21T12:08:56.031Z,94.40
2019-05-21T12:11:17.680Z,94.70
2019-05-21T12:13:47.417Z,94.40
2019-05-21T12:16:17.130Z,94.60
2019-05-21T12:18:46.863Z,94.70
2019-05-21T12:21:16.575Z,94.00
2019-05-21T12:23:46.180Z,94.60
2019-05-21T12:26:15.893Z,94.50
2019-05-21T12:28:45.500Z,94.00
2019-05-21T12:31:15.211Z,93.90
2019-05-21T12:33:49.671Z,94.00
2019-05-21T12:36:19.399Z,93.90
2019-05-21T12:38:49.156Z,93.80
2019-05-21T12:41:19.812Z,94.10
2019-05-21T12:43:49.469Z,94.20
2019-05-21T12:46:21.056Z,94.10
2019-05-21T12:48:50.355Z,95.30
2019-05-21T12:51:20.057Z,94.90
2019-05-21T12:53:49.740Z,95.50
2019-05-21T12:56:19.584Z,95.30
2019-05-21T12:58:50.286Z,95.50
2019-05-21T13:01:19.911Z,95.70
2019-05-21T13:03:49.638Z,95.60
2019-05-21T13:06:19.233Z,95.70
2019-05-21T13:08:49.105Z,95.30
2019-05-21T13:11:43.647Z,95.20
2019-05-21T13:14:16.300Z,95.70
2019-05-21T13:16:44.798Z,95.60
2019-05-21T13:19:14.415Z,96.20
2019-05-21T13:21:44.138Z,95.90
2019-05-21T13:24:13.735Z,95.70
2019-05-21T13:26:43.442Z,95.50
2019-05-21T13:29:13.153Z,95.60
2019-05-21T13:31:42.836Z,95.10
2019-05-21T13:34:12.574Z,95.40
2019-05-21T13:36:42.260Z,95.00
2019-05-21T13:39:11.994Z,95.60
2019-05-21T13:41:41.704Z,95.40
2019-05-21T13:44:11.319Z,95.30
2019-05-21T13:46:41.965Z,95.90
2019-05-21T13:49:11.856Z,95.50
2019-05-21T13:51:42.604Z,95.40
2019-05-21T13:54:12.302Z,95.90
2019-05-21T13:56:42.930Z,95.40
2019-05-21T13:59:12.553Z,96.10
2019-05-21T14:01:42.225Z,95.50
2019-05-21T14:04:11.861Z,96.10
2019-05-21T14:06:41.569Z,95.90
2019-05-21T14:09:11.280Z,96.60
2019-05-21T14:11:40.998Z,96.40
2019-05-21T14:14:10.623Z,96.40
2019-05-21T14:16:40.307Z,96.30
2019-05-21T14:19:10.025Z,96.40
2019-05-21T14:21:39.908Z,96.30
2019-05-21T14:24:11.368Z,96.50
2019-05-21T14:26:40.996Z,96.70
2019-05-21T14:29:10.702Z,96.60
2019-05-21T14:31:42.128Z,96.40
2019-05-21T14:34:11.864Z,96.60
2019-05-21T14:36:41.443Z,96.80
2019-05-21T14:39:13.820Z,96.80
2019-05-21T14:41:43.450Z,96.80
2019-05-21T14:44:13.188Z,96.90
2019-05-21T14:46:42.863Z,96.80
2019-05-21T14:49:14.404Z,97.00
2019-05-21T14:51:43.825Z,97.00
2019-05-21T14:54:26.263Z,97.40
2019-05-21T14:56:47.519Z,97.70
2019-05-21T14:59:16.203Z,98.00
2019-05-21T15:01:45.899Z,97.90
2019-05-21T15:04:16.354Z,97.70
2019-05-21T15:06:47.162Z,97.60
2019-05-21T15:09:16.920Z,98.00
2019-05-21T15:11:47.601Z,98.10
2019-05-21T15:14:17.360Z,98.10
2019-05-21T15:16:48.018Z,98.20
2019-05-21T15:19:17.702Z,98.30
2019-05-21T15:21:48.948Z,98.30
2019-05-21T15:24:18.659Z,98.80
2019-05-21T15:26:49.349Z,98.50
2019-05-21T15:29:19.001Z,98.50
2019-05-21T15:31:48.710Z,98.50
2019-05-21T15:34:20.211Z,98.60
2019-05-21T15:36:51.604Z,98.50
2019-05-21T15:39:21.220Z,98.40
2019-05-21T15:41:50.929Z,98.50
2019-05-21T15:44:22.317Z,98.80
2019-05-21T15:46:52.204Z,98.60
2019-05-21T15:49:43.390Z,98.50
2019-05-21T15:52:13.118Z,98.60
2019-05-21T15:54:42.743Z,98.50
2019-05-21T15:57:13.461Z,98.70
2019-05-21T15:59:43.172Z,98.80
2019-05-21T16:02:12.852Z,98.90
2019-05-21T16:04:42.590Z,98.90
2019-05-21T16:07:12.300Z,99.00
2019-05-21T16:09:42.009Z,98.90
2019-05-21T16:12:11.720Z,99.10
2019-05-21T16:14:41.327Z,99.00
2019-05-21T16:17:11.042Z,99.10
2019-05-21T16:19:41.849Z,99.20
2019-05-21T16:22:11.585Z,99.30
2019-05-21T16:24:41.295Z,99.30
2019-05-21T16:27:10.984Z,99.30
2019-05-21T16:29:42.428Z,99.50
2019-05-21T16:32:12.062Z,99.40
2019-05-21T16:34:41.774Z,99.50
2019-05-21T16:37:11.380Z,99.40
2019-05-21T16:39:41.062Z,99.60
2019-05-21T16:42:10.774Z,99.60
2019-05-21T16:44:40.488Z,99.70
2019-05-21T16:47:11.496Z,99.80
2019-05-21T16:49:41.237Z,99.70
2019-05-21T16:52:10.844Z,99.80
2019-05-21T16:54:40.551Z,99.90
2019-05-21T16:57:10.193Z,99.80
2019-05-21T16:59:39.897Z,99.90
2019-05-21T17:02:13.965Z,99.90
2019-05-21T17:04:45.462Z,99.90
2019-05-21T17:07:14.973Z,99.90
2019-05-21T17:09:44.579Z,99.90
2019-05-21T17:12:14.364Z,99.90
2019-05-21T17:14:44.097Z,99.90
2019-05-21T17:17:13.780Z,99.90
2019-05-21T17:19:43.451Z,99.90
2019-05-21T17:22:13.125Z,99.90
2019-05-21T17:24:42.836Z,99.90
2019-05-21T17:27:13.519Z,99.90
2019-05-21T17:29:43.132Z,99.90
2019-05-21T17:32:12.888Z,99.90
2019-05-21T17:34:42.634Z,99.90
2019-05-21T17:37:12.307Z,99.90
2019-05-21T17:39:42.027Z,99.90
2019-05-21T17:42:15.647Z,99.90
2019-05-21T17:44:43.078Z,99.90
2019-05-21T17:47:12.793Z,99.90
2019-05-21T17:49:42.498Z,99.90
2019-05-21T17:52:12.104Z,99.90
2019-05-21T17:54:55.469Z,99.90
2019-05-21T17:57:13.031Z,99.90
2019-05-21T17:59:42.770Z,99.90
2019-05-21T18:02:17.076Z,99.90
2019-05-21T18:04:47.384Z,99.90
2019-05-21T18:07:17.094Z,99.90
2019-05-21T18:09:46.839Z,99.90
2019-05-21T18:12:31.067Z,99.90
2019-05-21T18:14:49.916Z,99.90
2019-05-21T18:17:21.367Z,99.90
2019-05-21T18:20:04.566Z,99.90
2019-05-21T18:22:34.338Z,99.90
2019-05-21T18:25:05.368Z,99.90
2019-05-21T18:27:35.489Z,99.90
2019-05-21T18:30:07.358Z,99.90
2019-05-21T18:32:38.569Z,99.90
2019-05-21T18:35:09.332Z,99.90
2019-05-21T18:37:39.304Z,99.90
2019-05-21T18:40:10.030Z,99.90
2019-05-21T18:42:39.689Z,99.90
2019-05-21T18:45:10.020Z,99.90
2019-05-21T18:47:39.621Z,99.90
2019-05-21T18:50:09.433Z,99.90
2019-05-21T18:52:39.145Z,99.90
2019-05-21T18:55:08.855Z,99.90
2019-05-21T18:57:38.563Z,99.90
2019-05-21T19:00:08.347Z,99.80
2019-05-21T19:02:39.094Z,99.70
2019-05-21T19:05:08.717Z,99.80
2019-05-21T19:07:38.427Z,99.80
2019-05-21T19:10:09.676Z,99.60
2019-05-21T19:12:39.909Z,99.90
2019-05-21T19:15:10.507Z,99.40
2019-05-21T19:17:40.339Z,99.50
2019-05-21T19:20:10.050Z,99.30
2019-05-21T19:22:40.784Z,99.00
2019-05-21T19:25:10.684Z,98.90
2019-05-21T19:27:40.587Z,98.80
2019-05-21T19:30:11.321Z,98.80
2019-05-21T19:32:42.031Z,98.90
2019-05-21T19:35:13.615Z,98.70
2019-05-21T19:37:43.039Z,99.00
2019-05-21T19:40:13.672Z,98.70
2019-05-21T19:42:54.317Z,98.70
2019-05-21T19:45:14.704Z,98.90
2019-05-21T19:47:44.543Z,98.70
2019-05-21T19:50:14.225Z,98.50
2019-05-21T19:52:43.968Z,98.50
2019-05-21T19:55:13.671Z,98.70
2019-05-21T19:57:43.894Z,98.50
2019-05-21T20:00:13.604Z,98.60
2019-05-21T20:02:43.314Z,98.30
2019-05-21T20:05:13.090Z,98.10
2019-05-21T20:07:42.836Z,97.90
2019-05-21T20:10:13.607Z,97.80
2019-05-21T20:12:43.385Z,97.70
2019-05-21T20:15:13.093Z,97.40
2019-05-21T20:17:43.799Z,97.30
2019-05-21T20:20:13.537Z,97.90
2019-05-21T20:22:44.755Z,98.00
2019-05-21T20:25:14.571Z,98.00
2019-05-21T20:27:44.587Z,98.20
2019-05-21T20:30:15.832Z,98.20
2019-05-21T20:32:46.671Z,97.40
2019-05-21T20:35:17.953Z,97.80
2019-05-21T20:37:49.123Z,97.40
2019-05-21T20:40:18.874Z,98.00
2019-05-21T20:42:50.299Z,97.90
2019-05-21T20:45:21.085Z,97.90
2019-05-21T20:47:51.588Z,98.10
2019-05-21T20:50:22.348Z,98.10
2019-05-21T20:52:52.062Z,97.90
2019-05-21T20:55:22.792Z,97.70
2019-05-21T20:57:54.620Z,97.60
2019-05-21T21:00:41.225Z,97.80
2019-05-21T21:03:14.246Z,97.30
2019-05-21T21:05:43.927Z,97.20
2019-05-21T21:08:13.943Z,97.30
2019-05-21T21:10:43.784Z,97.50
2019-05-21T21:13:14.491Z,97.40
2019-05-21T21:15:44.716Z,97.20
2019-05-21T21:18:14.554Z,97.50
2019-05-21T21:20:44.413Z,97.40
2019-05-21T21:23:15.817Z,97.80
2019-05-21T21:25:45.836Z,97.70
2019-05-21T21:28:15.444Z,97.50
2019-05-21T21:30:46.809Z,97.70
2019-05-21T21:33:16.779Z,97.80
2019-05-21T21:35:46.552Z,97.40
2019-05-21T21:38:17.880Z,97.50
2019-05-21T21:40:48.163Z,97.40
2019-05-21T21:43:17.799Z,97.10
2019-05-21T21:45:47.508Z,97.20
2019-05-21T21:48:17.117Z,97.40
2019-05-21T21:50:46.828Z,97.60
2019-05-21T21:53:16.537Z,97.60
2019-05-21T21:55:48.062Z,97.50
2019-05-21T21:58:17.697Z,97.30
2019-05-21T22:01:28.627Z,97.10
2019-05-21T22:03:59.378Z,97.00
2019-05-21T22:06:30.387Z,97.10
2019-05-21T22:09:00.368Z,97.20
2019-05-21T22:11:30.178Z,97.40
2019-05-21T22:14:00.094Z,97.60
2019-05-21T22:16:29.804Z,97.80
2019-05-21T22:18:59.718Z,97.90
2019-05-21T22:21:29.430Z,97.80
2019-05-21T22:23:59.595Z,97.80
2019-05-21T22:26:29.436Z,98.00
2019-05-21T22:28:59.174Z,97.40
2019-05-21T22:31:28.755Z,97.50
2019-05-21T22:34:00.213Z,97.60
2019-05-21T22:36:30.146Z,97.50
2019-05-21T22:39:01.607Z,97.70
2019-05-21T22:41:33.123Z,97.80
2019-05-21T22:44:02.860Z,97.60
2019-05-21T22:46:32.547Z,97.80
2019-05-21T22:49:02.280Z,98.00
2019-05-21T22:51:31.894Z,97.80
2019-05-21T22:54:01.638Z,97.80
2019-05-21T22:56:31.383Z,98.00
2019-05-21T22:59:01.095Z,97.80
2019-05-21T23:01:31.959Z,97.80
2019-05-21T23:04:01.873Z,97.80
2019-05-21T23:06:31.555Z,98.00
2019-05-21T23:09:01.162Z,97.90
2019-05-21T23:11:33.266Z,97.90
2019-05-21T23:14:02.955Z,98.00
2019-05-21T23:16:32.891Z,98.20
2019-05-21T23:19:08.740Z,98.50
2019-05-21T23:21:40.113Z,98.10
2019-05-21T23:24:11.433Z,98.40
2019-05-21T23:26:41.143Z,97.60
2019-05-21T23:29:10.853Z,98.10
2019-05-21T23:31:40.665Z,98.00
2019-05-21T23:34:11.372Z,97.90
2019-05-21T23:36:41.611Z,98.10
2019-05-21T23:39:12.869Z,98.30
2019-05-21T23:41:44.500Z,98.20
2019-05-21T23:44:14.645Z,98.20
2019-05-21T23:46:45.549Z,98.20
2019-05-21T23:49:15.192Z,98.30
2019-05-21T23:51:45.107Z,98.20
2019-05-21T23:54:15.429Z,98.10
2019-05-21T23:56:45.044Z,97.90
2019-05-21T23:59:15.127Z,97.70
